createdAt,value
2018-10-12T00:01:53.640Z,15.87
2018-10-12T00:04:22.616Z,15.40
2018-10-12T00:06:51.582Z,17.03
2018-10-12T00:09:20.732Z,15.70
2018-10-12T00:11:49.604Z,16.20
2018-10-12T00:14:18.379Z,15.67
2018-10-12T00:16:47.182Z,14.93
2018-10-12T00:19:16.043Z,15.83
2018-10-12T00:21:45.260Z,15.53
2018-10-12T00:24:14.079Z,15.17
2018-10-12T00:26:42.949Z,16.03
2018-10-12T00:29:11.792Z,15.67
2018-10-12T00:31:40.731Z,16.73
2018-10-12T00:34:09.605Z,16.10
2018-10-12T00:36:38.401Z,16.43
2018-10-12T00:39:08.447Z,15.90
2018-10-12T00:41:37.244Z,15.37
2018-10-12T00:44:06.192Z,15.83
2018-10-12T00:46:35.040Z,15.60
2018-10-12T00:49:03.929Z,16.33
2018-10-12T00:51:32.763Z,16.77
2018-10-12T00:54:01.639Z,16.40
2018-10-12T00:56:30.512Z,16.60
2018-10-12T00:58:59.429Z,16.33
2018-10-12T01:01:28.205Z,16.53
2018-10-12T01:03:57.097Z,16.63
2018-10-12T01:06:25.925Z,15.93
2018-10-12T01:08:55.223Z,17.07
2018-10-12T01:11:23.981Z,15.77
2018-10-12T01:13:53.152Z,16.30
2018-10-12T01:16:21.986Z,16.80
2018-10-12T01:18:51.131Z,16.27
2018-10-12T01:21:20.472Z,17.80
2018-10-12T01:23:49.440Z,16.13
2018-10-12T01:26:18.348Z,16.83
2018-10-12T01:28:53.792Z,17.53
2018-10-12T01:31:23.016Z,16.93
2018-10-12T01:33:51.975Z,17.00
2018-10-12T01:36:20.881Z,16.47
2018-10-12T01:38:49.749Z,17.17
2018-10-12T01:41:18.671Z,16.53
2018-10-12T01:43:48.043Z,16.57
2018-10-12T01:46:16.969Z,16.57
2018-10-12T01:48:46.113Z,16.70
2018-10-12T01:51:14.987Z,16.60
2018-10-12T01:53:43.769Z,16.73
2018-10-12T01:56:12.707Z,16.60
2018-10-12T01:58:41.625Z,17.00
2018-10-12T02:01:11.121Z,17.00
2018-10-12T02:03:39.967Z,17.47
2018-10-12T02:06:08.860Z,18.47
2018-10-12T02:08:37.940Z,16.87
2018-10-12T02:11:06.981Z,16.47
2018-10-12T02:13:35.824Z,17.57
2018-10-12T02:16:04.791Z,17.20
2018-10-12T02:18:33.613Z,16.10
2018-10-12T02:21:02.896Z,16.43
2018-10-12T02:23:31.734Z,18.20
2018-10-12T02:26:00.681Z,18.30
2018-10-12T02:28:29.530Z,16.97
2018-10-12T02:30:58.372Z,17.17
2018-10-12T02:33:27.275Z,17.57
2018-10-12T02:35:56.073Z,18.60
2018-10-12T02:38:25.256Z,18.37
2018-10-12T02:40:54.132Z,17.13
2018-10-12T02:43:23.004Z,17.40
2018-10-12T02:45:51.924Z,17.00
2018-10-12T02:48:20.772Z,18.30
2018-10-12T02:50:49.561Z,16.33
2018-10-12T02:53:18.593Z,17.40
2018-10-12T02:55:47.505Z,16.50
2018-10-12T02:58:16.396Z,16.77
2018-10-12T03:00:45.210Z,16.57
2018-10-12T03:03:14.065Z,17.33
2018-10-12T03:05:43.006Z,16.73
2018-10-12T03:08:11.824Z,16.93
2018-10-12T03:10:40.676Z,17.03
2018-10-12T03:13:09.512Z,16.27
2018-10-12T03:15:38.340Z,17.50
2018-10-12T03:18:07.268Z,16.40
2018-10-12T03:20:36.119Z,16.03
2018-10-12T03:23:05.124Z,16.87
2018-10-12T03:25:34.009Z,17.07
2018-10-12T03:28:23.262Z,17.57
2018-10-12T03:30:52.260Z,17.80
2018-10-12T03:33:21.690Z,17.77
2018-10-12T03:35:50.735Z,17.17
2018-10-12T03:38:19.591Z,18.33
2018-10-12T03:40:48.490Z,16.90
2018-10-12T03:43:17.344Z,17.83
2018-10-12T03:45:46.364Z,18.53
2018-10-12T03:48:15.252Z,19.00
2018-10-12T03:50:44.173Z,17.87
2018-10-12T03:53:13.458Z,17.23
2018-10-12T03:55:42.397Z,17.63
2018-10-12T03:58:11.353Z,16.37
2018-10-12T04:00:40.151Z,17.03
2018-10-12T04:03:09.039Z,17.53
2018-10-12T04:05:37.908Z,16.70
2018-10-12T04:08:06.805Z,17.67
2018-10-12T04:10:35.736Z,17.87
2018-10-12T04:13:04.559Z,17.83
2018-10-12T04:15:33.489Z,17.83
2018-10-12T04:18:02.272Z,18.53
2018-10-12T04:20:31.151Z,17.57
2018-10-12T04:23:00.302Z,17.80
2018-10-12T04:25:29.288Z,16.43
2018-10-12T04:28:00.588Z,16.10
2018-10-12T04:30:29.455Z,17.07
2018-10-12T04:32:58.330Z,16.90
2018-10-12T04:35:27.204Z,17.77
2018-10-12T04:37:56.067Z,16.60
2018-10-12T04:41:15.320Z,18.13
2018-10-12T04:43:45.180Z,17.33
2018-10-12T04:46:18.135Z,17.63
2018-10-12T04:48:48.967Z,17.33
2018-10-12T04:51:33.790Z,17.27
2018-10-12T04:54:02.808Z,17.60
2018-10-12T04:56:31.836Z,17.73
2018-10-12T04:59:00.751Z,17.07
2018-10-12T05:01:30.077Z,17.03
2018-10-12T05:03:59.010Z,16.13
2018-10-12T05:06:27.829Z,16.90
2018-10-12T05:08:56.897Z,17.00
2018-10-12T05:11:25.763Z,16.37
2018-10-12T05:13:54.664Z,16.07
2018-10-12T05:16:23.504Z,17.53
2018-10-12T05:18:52.341Z,17.30
2018-10-12T05:21:21.227Z,17.80
2018-10-12T05:23:50.080Z,16.83
2018-10-12T05:26:18.919Z,17.00
2018-10-12T05:28:47.940Z,17.60
2018-10-12T05:31:16.913Z,17.23
2018-10-12T05:33:45.913Z,17.00
2018-10-12T05:36:14.792Z,17.30
2018-10-12T05:38:43.669Z,16.70
2018-10-12T05:41:12.523Z,17.97
2018-10-12T05:43:41.549Z,17.57
2018-10-12T05:46:10.465Z,17.70
2018-10-12T05:48:56.439Z,16.77
2018-10-12T05:51:25.474Z,16.93
2018-10-12T05:53:54.480Z,16.47
2018-10-12T05:56:32.663Z,17.40
2018-10-12T05:59:01.852Z,17.73
2018-10-12T06:01:30.873Z,17.53
2018-10-12T06:03:59.691Z,17.07
2018-10-12T06:06:29.183Z,17.53
2018-10-12T06:08:58.069Z,17.53
2018-10-12T06:11:27.077Z,17.73
2018-10-12T06:13:55.858Z,18.77
2018-10-12T06:16:24.788Z,18.33
2018-10-12T06:18:53.636Z,17.87
2018-10-12T06:21:22.605Z,17.13
2018-10-12T06:23:51.442Z,17.80
2018-10-12T06:26:20.312Z,17.30
2018-10-12T06:28:49.189Z,17.17
2018-10-12T06:31:18.249Z,17.67
2018-10-12T06:33:47.142Z,17.07
2018-10-12T06:36:16.091Z,17.27
2018-10-12T06:38:44.904Z,19.33
2018-10-12T06:41:13.786Z,18.27
2018-10-12T06:43:42.621Z,18.77
2018-10-12T06:46:11.614Z,17.70
2018-10-12T06:48:40.466Z,17.77
2018-10-12T06:51:09.449Z,17.77
2018-10-12T06:53:38.333Z,18.47
2018-10-12T06:56:07.281Z,18.57
2018-10-12T06:58:36.166Z,19.20
2018-10-12T07:01:05.040Z,17.87
2018-10-12T07:03:34.106Z,18.30
2018-10-12T07:06:03.317Z,17.30
2018-10-12T07:08:32.232Z,18.47
2018-10-12T07:11:01.316Z,18.77
2018-10-12T07:13:30.226Z,17.90
2018-10-12T07:15:59.012Z,17.93
2018-10-12T07:18:27.911Z,16.70
2018-10-12T07:20:57.148Z,18.30
2018-10-12T07:23:25.957Z,17.43
2018-10-12T07:25:54.805Z,17.23
2018-10-12T07:28:23.644Z,17.20
2018-10-12T07:30:52.465Z,17.30
2018-10-12T07:33:21.419Z,17.17
2018-10-12T07:35:50.204Z,17.87
2018-10-12T07:38:19.041Z,16.90
2018-10-12T07:40:47.851Z,17.47
2018-10-12T07:43:16.714Z,16.60
2018-10-12T07:45:45.725Z,15.67
2018-10-12T07:48:14.592Z,15.70
2018-10-12T07:50:43.374Z,15.80
2018-10-12T07:53:12.293Z,15.97
2018-10-12T07:55:41.117Z,15.73
2018-10-12T07:58:10.339Z,15.13
2018-10-12T08:00:39.218Z,13.80
2018-10-12T08:03:08.037Z,13.57
2018-10-12T08:05:36.895Z,13.60
2018-10-12T08:08:05.761Z,14.10
2018-10-12T08:10:34.647Z,13.93
2018-10-12T08:13:03.493Z,12.10
2018-10-12T08:15:32.405Z,11.47
2018-10-12T08:18:01.389Z,12.17
2018-10-12T08:20:30.431Z,11.20
2018-10-12T08:22:59.378Z,11.80
2018-10-12T08:25:28.332Z,11.83
2018-10-12T08:27:57.200Z,10.87
2018-10-12T08:30:26.174Z,11.27
2018-10-12T08:32:55.275Z,10.40
2018-10-12T08:35:24.213Z,10.67
2018-10-12T08:37:52.999Z,10.30
2018-10-12T08:40:21.830Z,10.43
2018-10-12T08:42:50.779Z,10.57
2018-10-12T08:45:19.647Z,9.87
2018-10-12T08:47:48.528Z,9.67
2018-10-12T08:50:17.375Z,9.87
2018-10-12T08:52:46.177Z,10.43
2018-10-12T08:55:15.388Z,9.40
2018-10-12T08:57:44.459Z,8.33
2018-10-12T09:00:14.092Z,8.03
2018-10-12T09:02:42.911Z,8.47
2018-10-12T09:05:11.742Z,8.47
2018-10-12T09:07:40.614Z,8.83
2018-10-12T09:10:09.696Z,7.97
2018-10-12T09:12:38.905Z,7.83
2018-10-12T09:15:08.038Z,7.60
2018-10-12T09:17:36.980Z,8.03
2018-10-12T09:20:06.563Z,7.67
2018-10-12T09:22:35.452Z,7.23
2018-10-12T09:25:04.653Z,7.33
2018-10-12T09:27:33.561Z,5.83
2018-10-12T09:30:02.462Z,5.93
2018-10-12T09:32:31.296Z,5.80
2018-10-12T09:35:00.113Z,5.43
2018-10-12T09:37:29.077Z,5.70
2018-10-12T09:39:57.898Z,5.20
2018-10-12T09:42:26.793Z,5.33
2018-10-12T09:44:55.885Z,5.67
2018-10-12T09:47:24.823Z,5.10
2018-10-12T09:49:53.707Z,5.53
2018-10-12T09:52:22.492Z,5.23
2018-10-12T09:54:51.356Z,5.07
2018-10-12T09:57:38.896Z,5.40
2018-10-12T10:00:13.369Z,5.20
2018-10-12T10:02:47.612Z,5.30
2018-10-12T10:05:17.151Z,5.57
2018-10-12T10:07:46.055Z,5.40
2018-10-12T10:10:15.169Z,5.57
2018-10-12T10:12:43.948Z,5.10
2018-10-12T10:15:12.800Z,4.67
2018-10-12T10:17:41.685Z,4.60
2018-10-12T10:20:10.808Z,5.10
2018-10-12T10:22:39.656Z,5.07
2018-10-12T10:25:08.724Z,4.53
2018-10-12T10:27:37.456Z,4.63
2018-10-12T10:30:06.472Z,4.30
2018-10-12T10:32:35.282Z,5.00
2018-10-12T10:35:04.288Z,4.40
2018-10-12T10:37:33.070Z,4.73
2018-10-12T10:40:01.960Z,4.23
2018-10-12T10:42:30.801Z,4.40
2018-10-12T10:45:00.049Z,4.17
2018-10-12T10:47:29.168Z,4.30
2018-10-12T10:49:58.162Z,3.93
2018-10-12T10:52:27.250Z,3.70
2018-10-12T10:54:56.106Z,4.10
2018-10-12T10:57:24.986Z,4.00
2018-10-12T10:59:53.903Z,4.00
2018-10-12T11:02:22.765Z,4.70
2018-10-12T11:04:51.630Z,4.60
2018-10-12T11:07:21.435Z,4.00
2018-10-12T11:09:50.281Z,4.80
2018-10-12T11:12:19.218Z,3.53
2018-10-12T11:14:47.940Z,4.10
2018-10-12T11:17:16.834Z,4.30
2018-10-12T11:19:45.898Z,4.13
2018-10-12T11:22:14.763Z,5.03
2018-10-12T11:24:43.731Z,3.80
2018-10-12T11:27:12.590Z,4.17
2018-10-12T11:29:41.444Z,3.63
2018-10-12T11:32:10.271Z,3.40
2018-10-12T11:34:39.081Z,3.60
2018-10-12T11:37:08.012Z,3.03
2018-10-12T11:39:36.826Z,3.10
2018-10-12T11:42:05.704Z,3.43
2018-10-12T11:44:34.482Z,3.50
2018-10-12T11:47:03.331Z,4.27
2018-10-12T11:49:32.181Z,3.07
2018-10-12T11:52:01.188Z,2.70
2018-10-12T11:54:29.980Z,2.50
2018-10-12T11:56:58.773Z,2.73
2018-10-12T11:59:27.591Z,2.40
2018-10-12T12:01:56.644Z,2.37
2018-10-12T12:04:25.505Z,2.80
2018-10-12T12:06:54.316Z,2.43
2018-10-12T12:09:23.612Z,2.20
2018-10-12T12:11:52.977Z,2.40
2018-10-12T12:14:22.396Z,2.17
2018-10-12T12:16:51.509Z,2.20
2018-10-12T12:19:20.407Z,2.13
2018-10-12T12:21:49.263Z,1.97
2018-10-12T12:24:19.431Z,2.13
2018-10-12T12:26:48.464Z,2.33
2018-10-12T12:29:17.608Z,2.60
2018-10-12T12:31:46.479Z,2.30
2018-10-12T12:34:15.525Z,2.47
2018-10-12T12:36:44.536Z,3.60
2018-10-12T12:39:13.495Z,1.90
2018-10-12T12:41:42.396Z,2.20
2018-10-12T12:44:11.283Z,2.20
2018-10-12T12:46:40.103Z,2.10
2018-10-12T12:49:09.316Z,1.77
2018-10-12T12:51:37.862Z,1.97
2018-10-12T12:54:06.726Z,2.07
2018-10-12T12:56:35.616Z,1.80
2018-10-12T12:59:04.776Z,2.30
2018-10-12T13:01:33.647Z,1.80
2018-10-12T13:04:02.521Z,2.10
2018-10-12T13:06:31.979Z,2.10
2018-10-12T13:09:00.708Z,2.00
2018-10-12T13:11:29.842Z,1.97
2018-10-12T13:13:58.620Z,2.00
2018-10-12T13:16:27.495Z,2.00
2018-10-12T13:18:56.318Z,2.40
2018-10-12T13:21:25.192Z,2.50
2018-10-12T13:23:54.011Z,2.53
2018-10-12T13:26:23.289Z,2.20
2018-10-12T13:28:52.388Z,2.47
2018-10-12T13:31:21.290Z,1.80
2018-10-12T13:33:50.081Z,2.03
2018-10-12T13:36:18.948Z,2.00
2018-10-12T13:38:47.736Z,1.80
2018-10-12T13:41:16.670Z,2.03
2018-10-12T13:43:45.485Z,2.03
2018-10-12T13:46:14.383Z,1.87
2018-10-12T13:48:43.249Z,1.80
2018-10-12T13:51:12.140Z,1.97
2018-10-12T13:53:41.008Z,2.00
2018-10-12T13:56:09.844Z,2.03
2018-10-12T13:58:38.718Z,2.03
2018-10-12T14:01:07.531Z,2.13
2018-10-12T14:03:36.401Z,2.20
2018-10-12T14:06:05.353Z,2.10
2018-10-12T14:08:34.181Z,2.00
2018-10-12T14:11:02.980Z,2.90
2018-10-12T14:13:31.827Z,2.10
2018-10-12T14:16:00.633Z,2.43
2018-10-12T14:18:29.635Z,2.53
2018-10-12T14:20:58.439Z,2.27
2018-10-12T14:23:27.292Z,2.50
2018-10-12T14:25:56.078Z,2.27
2018-10-12T14:28:24.943Z,2.57
2018-10-12T14:30:53.900Z,2.60
2018-10-12T14:33:22.751Z,2.37
2018-10-12T14:35:51.717Z,2.53
2018-10-12T14:38:20.480Z,2.33
2018-10-12T14:40:49.271Z,2.67
2018-10-12T14:43:18.296Z,2.50
2018-10-12T14:45:47.129Z,2.40
2018-10-12T14:48:16.015Z,2.33
2018-10-12T14:50:44.859Z,2.83
2018-10-12T14:53:13.766Z,2.70
2018-10-12T14:55:42.659Z,2.30
2018-10-12T14:58:11.449Z,2.30
2018-10-12T15:00:40.294Z,2.43
2018-10-12T15:03:09.049Z,3.00
2018-10-12T15:05:37.926Z,2.60
2018-10-12T15:08:07.085Z,2.73
2018-10-12T15:10:36.268Z,2.47
2018-10-12T15:13:05.173Z,3.47
2018-10-12T15:15:34.032Z,2.30
2018-10-12T15:18:02.876Z,2.73
2018-10-12T15:20:32.029Z,2.53
2018-10-12T15:23:00.833Z,2.47
2018-10-12T15:25:29.709Z,2.53
2018-10-12T15:27:58.512Z,2.83
2018-10-12T15:30:27.446Z,2.50
2018-10-12T15:32:56.281Z,2.80
2018-10-12T15:35:25.170Z,2.63
2018-10-12T15:37:54.256Z,2.90
2018-10-12T15:40:23.172Z,2.30
2018-10-12T15:42:52.114Z,2.60
2018-10-12T15:45:21.021Z,2.40
2018-10-12T15:47:49.965Z,2.50
2018-10-12T15:50:18.805Z,3.03
2018-10-12T15:52:47.609Z,3.30
2018-10-12T15:55:16.494Z,3.40
2018-10-12T15:57:45.392Z,3.20
2018-10-12T16:00:14.312Z,3.67
2018-10-12T16:02:43.215Z,3.50
2018-10-12T16:05:12.042Z,3.20
2018-10-12T16:07:40.993Z,3.40
2018-10-12T16:10:09.964Z,3.77
2018-10-12T16:12:38.815Z,3.63
2018-10-12T16:15:07.683Z,3.40
2018-10-12T16:17:36.574Z,3.93
2018-10-12T16:20:05.529Z,3.50
2018-10-12T16:22:34.498Z,3.10
2018-10-12T16:25:20.040Z,3.10
2018-10-12T16:27:48.875Z,3.10
2018-10-12T16:30:18.057Z,2.77
2018-10-12T16:32:46.964Z,3.70
2018-10-12T16:35:15.780Z,3.37
2018-10-12T16:37:44.613Z,3.20
2018-10-12T16:40:13.465Z,3.40
2018-10-12T16:42:42.263Z,3.83
2018-10-12T16:45:17.430Z,4.30
2018-10-12T16:47:45.984Z,4.30
2018-10-12T16:50:14.845Z,4.23
2018-10-12T16:52:43.665Z,4.30
2018-10-12T16:55:12.970Z,3.63
2018-10-12T16:57:41.845Z,3.87
2018-10-12T17:00:10.661Z,3.70
2018-10-12T17:02:39.487Z,3.50
2018-10-12T17:05:08.348Z,3.70
2018-10-12T17:07:37.228Z,4.03
2018-10-12T17:10:06.151Z,3.87
2018-10-12T17:12:34.993Z,3.60
2018-10-12T17:15:03.996Z,3.80
2018-10-12T17:17:32.751Z,3.57
2018-10-12T17:20:01.653Z,3.90
2018-10-12T17:22:30.471Z,3.63
2018-10-12T17:24:59.377Z,3.40
2018-10-12T17:27:28.207Z,3.47
2018-10-12T17:29:57.120Z,3.50
2018-10-12T17:32:25.960Z,3.63
2018-10-12T17:34:54.807Z,3.00
2018-10-12T17:37:23.620Z,3.20
2018-10-12T17:39:52.584Z,3.20
2018-10-12T17:42:21.411Z,3.73
2018-10-12T17:44:50.319Z,4.70
2018-10-12T17:47:19.188Z,9.60
2018-10-12T17:49:47.983Z,3.93
2018-10-12T17:52:16.877Z,4.10
2018-10-12T17:54:45.707Z,4.57
2018-10-12T17:57:14.995Z,3.93
2018-10-12T17:59:44.069Z,3.87
2018-10-12T18:02:12.985Z,4.40
2018-10-12T18:04:41.805Z,4.00
2018-10-12T18:07:10.669Z,4.03
2018-10-12T18:09:39.565Z,3.93
2018-10-12T18:12:08.424Z,3.97
2018-10-12T18:14:37.351Z,3.87
2018-10-12T18:17:06.379Z,4.20
2018-10-12T18:19:35.271Z,4.67
2018-10-12T18:22:05.373Z,4.23
2018-10-12T18:24:34.200Z,3.70
2018-10-12T18:27:03.079Z,4.20
2018-10-12T18:29:32.353Z,3.30
2018-10-12T18:32:01.175Z,4.03
2018-10-12T18:34:30.034Z,4.83
2018-10-12T18:37:01.269Z,4.27
2018-10-12T18:39:29.997Z,3.90
2018-10-12T18:41:58.883Z,4.93
2018-10-12T18:44:28.224Z,4.53
2018-10-12T18:46:57.695Z,4.83
2018-10-12T18:49:26.493Z,7.50
2018-10-12T18:51:55.330Z,4.83
2018-10-12T18:54:24.466Z,4.57
2018-10-12T18:56:53.365Z,5.23
2018-10-12T18:59:22.294Z,4.50
2018-10-12T19:01:51.604Z,4.87
2018-10-12T19:04:20.482Z,5.30
2018-10-12T19:06:49.645Z,5.70
2018-10-12T19:09:19.222Z,5.10
2018-10-12T19:11:48.155Z,5.20
2018-10-12T19:14:16.994Z,5.33
2018-10-12T19:16:45.880Z,5.50
2018-10-12T19:19:15.077Z,6.20
2018-10-12T19:21:44.161Z,6.07
2018-10-12T19:24:13.137Z,5.77
2018-10-12T19:26:42.105Z,6.23
2018-10-12T19:29:10.961Z,6.03
2018-10-12T19:31:40.111Z,6.23
2018-10-12T19:34:08.959Z,6.23
2018-10-12T19:36:38.167Z,5.97
2018-10-12T19:39:08.850Z,6.70
2018-10-12T19:41:37.716Z,6.57
2018-10-12T19:44:07.718Z,5.60
2018-10-12T19:46:36.590Z,6.50
2018-10-12T19:49:05.639Z,6.43
2018-10-12T19:51:34.438Z,6.07
2018-10-12T19:54:03.553Z,5.70
2018-10-12T19:56:32.749Z,6.20
2018-10-12T19:59:01.583Z,5.80
2018-10-12T20:01:30.555Z,5.53
2018-10-12T20:04:00.113Z,6.13
2018-10-12T20:06:28.986Z,5.17
2018-10-12T20:08:57.895Z,4.80
2018-10-12T20:11:26.839Z,5.07
2018-10-12T20:13:55.995Z,4.77
2018-10-12T20:16:25.119Z,4.53
2018-10-12T20:18:53.961Z,6.07
2018-10-12T20:21:22.865Z,5.00
2018-10-12T20:23:51.706Z,5.00
2018-10-12T20:26:20.548Z,4.67
2018-10-12T20:28:49.378Z,4.57
2018-10-12T20:31:18.306Z,4.67
2018-10-12T20:33:47.216Z,5.13
2018-10-12T20:36:16.149Z,4.67
2018-10-12T20:38:44.938Z,4.70
2018-10-12T20:41:13.758Z,4.70
2018-10-12T20:43:42.655Z,5.07
2018-10-12T20:46:11.461Z,4.80
2018-10-12T20:48:40.353Z,4.70
2018-10-12T20:51:09.667Z,4.43
2018-10-12T20:53:38.531Z,4.80
2018-10-12T20:56:07.523Z,5.17
2018-10-12T20:58:36.437Z,4.77
2018-10-12T21:01:05.540Z,4.80
2018-10-12T21:03:34.445Z,4.53
2018-10-12T21:06:03.290Z,4.63
2018-10-12T21:08:32.122Z,4.90
2018-10-12T21:11:01.193Z,4.77
2018-10-12T21:13:30.136Z,4.17
2018-10-12T21:15:58.958Z,4.53
2018-10-12T21:18:28.133Z,4.27
2018-10-12T21:20:56.923Z,4.30
2018-10-12T21:23:25.764Z,4.13
2018-10-12T21:25:54.588Z,4.30
2018-10-12T21:28:23.879Z,5.07
2018-10-12T21:30:52.679Z,4.67
2018-10-12T21:33:21.734Z,4.60
2018-10-12T21:35:50.600Z,4.90
2018-10-12T21:38:19.472Z,4.77
2018-10-12T21:40:48.365Z,4.50
2018-10-12T21:43:17.164Z,4.47
2018-10-12T21:45:46.071Z,4.53
2018-10-12T21:48:14.860Z,4.50
2018-10-12T21:50:43.756Z,3.93
2018-10-12T21:53:12.580Z,4.17
2018-10-12T21:55:41.469Z,4.80
2018-10-12T21:58:10.257Z,4.37
2018-10-12T22:00:39.179Z,4.47
2018-10-12T22:03:08.151Z,4.73
2018-10-12T22:05:37.318Z,5.10
2018-10-12T22:08:06.225Z,4.73
2018-10-12T22:10:35.068Z,4.10
2018-10-12T22:13:03.871Z,4.37
2018-10-12T22:15:33.003Z,4.40
2018-10-12T22:18:01.792Z,4.40
2018-10-12T22:20:30.697Z,4.47
2018-10-12T22:22:59.809Z,3.97
2018-10-12T22:25:28.928Z,4.27
2018-10-12T22:27:57.819Z,4.77
2018-10-12T22:30:26.734Z,4.27
2018-10-12T22:32:55.603Z,4.30
2018-10-12T22:35:24.409Z,4.07
2018-10-12T22:37:53.853Z,4.67
2018-10-12T22:40:22.756Z,4.20
2018-10-12T22:42:53.160Z,5.00
2018-10-12T22:45:23.016Z,4.53
2018-10-12T22:47:51.931Z,4.83
2018-10-12T22:50:20.724Z,4.33
2018-10-12T22:52:49.715Z,4.73
2018-10-12T22:55:18.920Z,4.83
2018-10-12T22:57:47.788Z,5.27
2018-10-12T23:00:16.641Z,4.90
2018-10-12T23:02:45.491Z,5.23
2018-10-12T23:05:14.348Z,4.20
2018-10-12T23:07:43.204Z,4.83
2018-10-12T23:10:11.996Z,4.57
2018-10-12T23:12:41.000Z,4.37
2018-10-12T23:15:09.686Z,4.57
2018-10-12T23:17:38.611Z,4.77
2018-10-12T23:20:07.443Z,4.50
2018-10-12T23:22:36.264Z,4.80
2018-10-12T23:25:05.273Z,4.97
2018-10-12T23:27:34.112Z,4.80
2018-10-12T23:30:03.216Z,4.50
2018-10-12T23:32:32.049Z,4.70
2018-10-12T23:35:00.856Z,5.53
2018-10-12T23:37:29.674Z,5.10
2018-10-12T23:39:58.562Z,5.17
2018-10-12T23:42:27.428Z,4.93
2018-10-12T23:44:56.307Z,5.10
2018-10-12T23:47:25.229Z,5.03
2018-10-12T23:49:54.105Z,5.33
2018-10-12T23:52:22.906Z,5.33
2018-10-12T23:54:51.784Z,5.33
2018-10-12T23:57:20.588Z,5.07
2018-10-12T23:59:49.429Z,5.60
